Time;durP1;ratioP1;P1;durP2;ratioP2;P2;SDS_P1;SDS_P2;PMS_P1;PMS_P2;Temp;Humidity;BMP_temperature;BMP_pressure;BME280_temperature;BME280_humidity;BME280_pressure;Samples;Min_cycle;Max_cycle;Signal;HPM_P1;HPM_P2
2022/05/09 00:01:30;;;;;;;0.00;0.00;;;;;;;8.46;68.18;102764.19;10496205;28;20593;-79
2022/05/09 00:06:32;;;;;;;3.30;1.13;;;;;;;8.34;69.07;102753.13;10495007;28;20063;-80
2022/05/09 00:11:34;;;;;;;0.00;0.00;;;;;;;8.31;68.65;102758.06;10525711;28;20135;-79
2022/05/09 00:16:36;;;;;;;0.00;0.00;;;;;;;8.31;68.76;102752.91;10526821;28;20510;-80
2022/05/09 00:21:40;;;;;;;0.00;0.00;;;;;;;8.17;69.38;102742.66;10526728;28;20517;-80
2022/05/09 00:26:42;;;;;;;0.00;0.00;;;;;;;8.17;69.21;102742.66;10535743;28;20052;-79
2022/05/09 00:31:46;;;;;;;0.00;0.00;;;;;;;8.02;70.25;102744.22;10533748;28;20040;-80
2022/05/09 00:36:49;;;;;;;0.00;0.00;;;;;;;8.06;69.49;102738.50;10513292;28;20052;-80
2022/05/09 00:41:51;;;;;;;0.00;0.00;;;;;;;8.28;68.46;102737.34;10484931;28;20043;-79
2022/05/09 00:46:56;;;;;;;0.00;0.00;;;;;;;7.99;69.91;102736.31;10501555;28;20044;-80
2022/05/09 00:52:13;;;;;;;0.00;0.00;;;;;;;7.81;70.24;102739.44;10520202;28;20056;-79
2022/05/09 00:57:22;;;;;;;0.00;0.00;;;;;;;7.72;70.73;102728.56;10495311;28;20056;-80
2022/05/09 01:02:24;;;;;;;0.00;0.00;;;;;;;7.73;70.76;102730.34;10507538;28;20588;-80
2022/05/09 01:07:30;;;;;;;0.00;0.00;;;;;;;7.73;70.57;102730.34;10526828;28;20129;-80
2022/05/09 01:12:35;;;;;;;0.00;0.00;;;;;;;7.65;70.68;102724.69;10493407;28;20102;-80
2022/05/09 01:17:39;;;;;;;0.00;0.00;;;;;;;7.58;70.74;102727.63;10493039;28;20095;-80
2022/05/09 01:22:42;;;;;;;0.00;0.00;;;;;;;7.65;70.66;102723.78;10528427;28;20418;-80
2022/05/09 01:27:46;;;;;;;0.00;0.00;;;;;;;7.67;71.16;102717.97;10535884;28;20056;-80
2022/05/09 01:33:11;;;;;;;0.00;0.00;;;;;;;7.26;72.00;102727.22;10536039;28;20126;-80
2022/05/09 01:38:31;;;;;;;0.00;0.00;;;;;;;7.30;72.13;102725.75;10533119;28;20064;-80
2022/05/09 01:43:38;;;;;;;0.00;0.00;;;;;;;7.25;71.82;102720.31;10527305;28;20090;-80
2022/05/09 01:54:03;;;;;;;0.15;0.15;;;;;;;7.45;70.42;102711.41;10530132;28;20413;-80
2022/05/09 01:59:07;;;;;;;0.00;0.00;;;;;;;7.33;71.40;102714.84;10515785;28;20063;-80
2022/05/09 02:04:11;;;;;;;0.00;0.00;;;;;;;7.30;70.87;102708.69;10516087;28;20400;-80
2022/05/09 02:09:12;;;;;;;0.30;0.30;;;;;;;7.17;72.05;102713.78;10500059;28;20506;-81
2022/05/09 02:14:14;;;;;;;0.00;0.00;;;;;;;7.30;71.20;102713.84;10504619;28;20102;-80
2022/05/09 02:19:20;;;;;;;0.00;0.00;;;;;;;7.04;72.60;102713.69;10507273;28;20080;-80
2022/05/09 02:24:22;;;;;;;0.00;0.00;;;;;;;7.17;72.01;102713.78;10539179;28;20055;-80
2022/05/09 02:29:25;;;;;;;0.00;0.00;;;;;;;6.96;72.93;102716.59;10514054;28;20064;-80
2022/05/09 02:34:27;;;;;;;0.00;0.00;;;;;;;6.88;73.40;102707.53;10523157;28;20052;-79
2022/05/09 02:39:28;;;;;;;0.00;0.00;;;;;;;6.78;73.28;102705.97;10522101;28;20045;-79
2022/05/09 02:44:30;;;;;;;0.00;0.00;;;;;;;6.81;73.07;102707.88;10531540;28;20082;-77
2022/05/09 02:49:32;;;;;;;0.00;0.00;;;;;;;6.73;73.16;102706.44;10546618;28;20506;-77
2022/05/09 02:54:33;;;;;;;0.47;0.43;;;;;;;6.59;74.43;102703.78;10515053;28;20503;-77
2022/05/09 02:59:35;;;;;;;0.00;0.00;;;;;;;6.38;75.13;102705.69;10511756;28;20094;-77
2022/05/09 03:04:41;;;;;;;0.00;0.00;;;;;;;6.40;75.02;102701.59;10504070;28;20049;-77
2022/05/09 03:09:48;;;;;;;0.00;0.00;;;;;;;6.22;75.24;102690.88;10512257;28;20051;-78
2022/05/09 03:14:50;;;;;;;0.00;0.00;;;;;;;6.55;73.78;102688.97;10527539;28;20072;-78
2022/05/09 03:19:52;;;;;;;0.63;0.63;;;;;;;6.72;71.97;102686.72;10545053;28;20449;-78
2022/05/09 03:25:04;;;;;;;0.00;0.00;;;;;;;6.40;73.19;102685.31;10548277;28;20088;-77
2022/05/09 03:30:07;;;;;;;0.00;0.00;;;;;;;6.30;73.92;102678.66;10492299;28;20503;-78
2022/05/09 03:35:09;;;;;;;0.00;0.00;;;;;;;6.03;75.60;102679.31;10526720;28;20056;-77
2022/05/09 03:40:11;;;;;;;0.00;0.00;;;;;;;6.03;75.41;102674.22;10500015;28;20041;-76
2022/05/09 03:45:14;;;;;;;0.00;0.00;;;;;;;6.01;75.45;102675.75;10501632;28;20466;-78
2022/05/09 03:50:15;;;;;;;0.00;0.00;;;;;;;6.03;76.26;102674.22;10518604;28;20127;-77
2022/05/09 03:55:20;;;;;;;0.00;0.00;;;;;;;5.77;76.69;102666.28;10532467;28;20060;-77
2022/05/09 04:00:24;;;;;;;0.00;0.00;;;;;;;5.66;77.81;102665.47;10522914;28;20117;-77
2022/05/09 04:05:30;;;;;;;0.00;0.00;;;;;;;5.58;78.42;102674.25;10521302;28;20139;-77
2022/05/09 04:10:35;;;;;;;0.00;0.00;;;;;;;5.69;77.61;102671.72;10538777;28;20052;-77
2022/05/09 04:21:01;;;;;;;0.00;0.00;;;;;;;6.12;75.72;102663.75;10511425;28;20499;-78
2022/05/09 04:26:08;;;;;;;0.00;0.00;;;;;;;5.98;77.07;102664.38;10513561;28;20044;-77
2022/05/09 04:31:09;;;;;;;0.00;0.00;;;;;;;6.03;76.74;102653.75;10541410;28;20113;-77
2022/05/09 04:36:11;;;;;;;0.00;0.00;;;;;;;6.45;75.56;102664.41;10536118;28;20044;-77
2022/05/09 04:41:13;;;;;;;0.00;0.00;;;;;;;6.50;75.74;102669.84;10524723;28;20055;-77
2022/05/09 04:46:16;;;;;;;0.00;0.00;;;;;;;6.69;75.51;102663.44;10517815;28;20548;-77
2022/05/09 04:51:18;;;;;;;0.00;0.00;;;;;;;6.75;75.04;102663.88;10542648;28;20105;-78
2022/05/09 04:56:22;;;;;;;0.00;0.00;;;;;;;7.10;73.54;102660.31;10532642;28;20105;-77
2022/05/09 05:01:24;;;;;;;0.00;0.00;;;;;;;7.21;73.56;102659.34;10520852;28;20060;-77
2022/05/09 05:06:25;;;;;;;0.00;0.00;;;;;;;7.20;72.82;102660.13;10511807;28;20089;-78
2022/05/09 05:11:28;;;;;;;0.00;0.00;;;;;;;7.47;71.92;102655.09;10543193;28;20036;-78
2022/05/09 05:21:50;;;;;;;0.00;0.00;;;;;;;7.84;71.65;102652.41;10502932;28;20053;-78
2022/05/09 05:26:55;;;;;;;0.93;0.93;;;;;;;8.08;72.70;102657.31;10530153;28;20048;-78
2022/05/09 05:31:57;;;;;;;0.00;0.00;;;;;;;8.28;70.35;102650.91;10544779;28;20048;-77
2022/05/09 05:36:58;;;;;;;0.00;0.00;;;;;;;8.31;70.40;102652.78;10528507;28;20052;-78
2022/05/09 05:42:00;;;;;;;0.00;0.00;;;;;;;8.36;70.99;102651.41;10540918;28;20048;-77
2022/05/09 05:47:12;;;;;;;0.00;0.00;;;;;;;8.66;70.34;102649.00;10548166;28;20109;-78
2022/05/09 05:52:15;;;;;;;0.00;0.00;;;;;;;8.67;69.78;102640.50;10521609;28;20510;-78
2022/05/09 05:57:26;;;;;;;0.00;0.00;;;;;;;9.23;69.42;102648.97;10508688;28;20509;-77
2022/05/09 06:02:29;;;;;;;0.00;0.00;;;;;;;9.39;68.48;102646.53;10548647;28;20052;-78
2022/05/09 06:07:33;;;;;;;0.00;0.00;;;;;;;9.74;68.97;102649.38;10535511;28;20403;-78
2022/05/09 06:12:35;;;;;;;0.00;0.00;;;;;;;10.04;66.78;102645.06;10550844;28;20048;-78
2022/05/09 06:17:38;;;;;;;0.28;0.28;;;;;;;9.81;68.18;102649.78;10537986;28;20052;-77
2022/05/09 06:22:41;;;;;;;0.00;0.00;;;;;;;10.23;67.06;102641.81;10548293;28;20056;-78
2022/05/09 06:27:42;;;;;;;0.00;0.00;;;;;;;10.58;66.63;102640.31;10545517;28;20048;-78
2022/05/09 06:32:45;;;;;;;0.00;0.00;;;;;;;10.63;66.15;102633.72;10547166;28;20461;-79
2022/05/09 06:37:49;;;;;;;0.00;0.00;;;;;;;11.13;66.67;102627.69;10538607;28;20057;-78
2022/05/09 06:42:52;;;;;;;0.00;0.00;;;;;;;11.53;64.75;102633.16;10516120;28;20052;-80
2022/05/09 06:47:56;;;;;;;0.60;0.32;;;;;;;12.03;63.26;102627.81;10536888;28;20050;-79
2022/05/09 06:53:00;;;;;;;0.00;0.00;;;;;;;12.66;60.59;102625.56;10545714;28;20048;-80
2022/05/09 06:58:23;;;;;;;0.00;0.00;;;;;;;13.24;59.99;102605.63;10553697;28;20418;-79
2022/05/09 07:03:25;;;;;;;0.00;0.00;;;;;;;14.09;57.97;102609.06;10551585;28;20063;-80
2022/05/09 07:08:32;;;;;;;0.10;0.10;;;;;;;14.41;57.97;102599.03;10506361;28;20446;-80
2022/05/09 07:13:34;;;;;;;0.00;0.00;;;;;;;15.13;54.62;102592.09;10547449;28;20055;-79
2022/05/09 07:18:37;;;;;;;34.50;17.00;;;;;;;15.79;54.88;102593.34;10539863;28;20040;-80
2022/05/09 07:23:39;;;;;;;0.00;0.00;;;;;;;16.10;53.21;102606.44;10546383;28;20052;-79
2022/05/09 07:28:42;;;;;;;0.00;0.00;;;;;;;16.37;53.08;102605.50;10520826;28;20059;-79
2022/05/09 07:33:44;;;;;;;0.00;0.00;;;;;;;17.48;49.88;102607.59;10502854;28;20055;-79
2022/05/09 07:38:48;;;;;;;0.00;0.00;;;;;;;17.39;52.26;102597.84;10513337;28;20481;-79
2022/05/09 07:43:52;;;;;;;0.00;0.00;;;;;;;17.88;47.39;102592.91;10504515;28;20056;-79
2022/05/09 07:48:57;;;;;;;0.00;0.00;;;;;;;18.35;46.28;102590.47;10523667;28;20135;-79
2022/05/09 07:53:58;;;;;;;0.00;0.00;;;;;;;18.70;45.79;102576.34;10538571;28;20052;-79
2022/05/09 07:59:02;;;;;;;0.00;0.00;;;;;;;18.43;47.45;102576.72;10531768;28;20451;-78
2022/05/09 08:04:03;;;;;;;0.10;0.10;;;;;;;19.21;45.46;102585.13;10512677;28;20075;-79
2022/05/09 08:09:05;;;;;;;0.00;0.00;;;;;;;19.91;44.73;102583.59;10523526;28;20048;-78
2022/05/09 08:14:07;;;;;;;0.00;0.00;;;;;;;20.02;41.35;102591.59;10528116;28;20102;-78
2022/05/09 08:19:15;;;;;;;0.10;0.10;;;;;;;20.27;41.38;102580.59;10557598;28;20475;-78
2022/05/09 08:24:17;;;;;;;0.00;0.00;;;;;;;20.68;41.87;102578.41;10556831;28;20071;-79
2022/05/09 08:29:22;;;;;;;0.00;0.00;;;;;;;20.80;42.91;102580.28;10552145;28;20064;-79
2022/05/09 08:34:23;;;;;;;0.00;0.00;;;;;;;20.68;43.22;102573.16;10545352;28;20052;-79
2022/05/09 08:39:26;;;;;;;0.73;0.63;;;;;;;19.56;45.92;102582.19;10542697;28;20570;-79
2022/05/09 08:44:49;;;;;;;0.25;0.22;;;;;;;19.94;45.07;102576.66;10547549;28;20047;-79
2022/05/09 08:50:30;;;;;;;0.35;0.35;;;;;;;21.13;41.01;102582.34;10549024;28;20040;-79
2022/05/09 08:55:38;;;;;;;0.10;0.10;;;;;;;21.44;39.22;102586.97;10557901;28;20055;-79
2022/05/09 09:00:39;;;;;;;0.00;0.00;;;;;;;21.97;40.25;102588.19;10552255;28;20051;-79
2022/05/09 09:05:49;;;;;;;0.10;0.10;;;;;;;21.66;38.77;102578.44;10558082;28;20055;-78
2022/05/09 09:11:07;;;;;;;0.00;0.00;;;;;;;22.10;36.14;102570.78;10532987;28;20045;-79
2022/05/09 09:16:32;;;;;;;0.00;0.00;;;;;;;22.97;37.88;102564.00;10529780;28;20101;-79
2022/05/09 09:21:53;;;;;;;0.20;0.20;;;;;;;22.47;35.71;102561.28;10538036;28;20086;-79
2022/05/09 09:27:03;;;;;;;0.00;0.00;;;;;;;21.82;36.40;102574.13;10519801;28;20048;-80
2022/05/09 09:32:14;;;;;;;0.00;0.00;;;;;;;23.28;36.26;102558.75;10536329;28;20056;-78
2022/05/09 09:37:28;;;;;;;0.00;0.00;;;;;;;23.18;32.95;102557.03;10523999;28;20056;-78
2022/05/09 09:42:30;;;;;;;0.00;0.00;;;;;;;22.83;35.31;102545.59;10511014;28;20045;-78
2022/05/09 09:47:32;;;;;;;0.00;0.00;;;;;;;22.53;34.87;102551.66;10519591;28;20063;-78
2022/05/09 09:52:58;;;;;;;0.00;0.00;;;;;;;23.52;34.08;102541.19;10539034;28;20042;-78
2022/05/09 09:58:21;;;;;;;0.17;0.17;;;;;;;24.22;33.67;102539.19;10495092;28;20380;-78
2022/05/09 10:03:29;;;;;;;0.00;0.00;;;;;;;22.97;33.34;102538.59;10508855;28;20396;-78
2022/05/09 10:08:37;;;;;;;0.00;0.00;;;;;;;22.99;31.86;102530.69;10535290;28;20060;-79
2022/05/09 10:13:43;;;;;;;0.00;0.00;;;;;;;23.48;35.02;102524.53;10534753;28;20052;-79
2022/05/09 10:18:46;;;;;;;0.00;0.00;;;;;;;23.42;32.94;102519.28;10532153;28;20109;-78
2022/05/09 10:29:17;;;;;;;0.15;0.15;;;;;;;24.16;31.87;102502.38;10541289;28;20483;-80
2022/05/09 10:34:38;;;;;;;0.00;0.00;;;;;;;23.48;33.82;102507.88;10506407;28;20589;-80
2022/05/09 10:39:47;;;;;;;0.00;0.00;;;;;;;24.81;32.18;102496.69;10529013;28;20048;-79
2022/05/09 10:45:09;;;;;;;0.00;0.00;;;;;;;23.16;34.19;102487.75;10520754;28;20516;-79
2022/05/09 10:50:29;;;;;;;0.00;0.00;;;;;;;24.67;32.38;102479.22;10505135;28;20098;-79
2022/05/09 10:55:40;;;;;;;0.10;0.00;;;;;;;23.69;35.20;102473.59;10527882;28;20487;-79
2022/05/09 11:00:49;;;;;;;0.00;0.00;;;;;;;23.83;36.10;102475.31;10537714;28;20055;-79
2022/05/09 11:06:03;;;;;;;0.00;0.00;;;;;;;25.08;31.98;102468.28;10499227;28;20087;-79
2022/05/09 11:11:39;;;;;;;0.00;0.00;;;;;;;24.83;34.41;102458.00;10507916;28;20052;-79
2022/05/09 11:16:56;;;;;;;0.00;0.00;;;;;;;24.73;31.63;102451.06;10538732;28;20044;-80
2022/05/09 11:22:15;;;;;;;0.00;0.00;;;;;;;24.91;33.39;102450.00;10542638;28;20450;-80
2022/05/09 11:27:46;;;;;;;0.15;0.15;;;;;;;24.03;35.37;102438.38;10542764;28;20063;-80
2022/05/09 11:33:34;;;;;;;0.00;0.00;;;;;;;23.23;35.37;102429.91;10525269;28;20078;-79
2022/05/09 11:39:06;;;;;;;0.00;0.00;;;;;;;23.65;35.77;102419.25;10525773;28;20068;-79
2022/05/09 11:44:12;;;;;;;0.22;0.22;;;;;;;23.38;34.21;102415.84;10519145;28;20064;-79
2022/05/09 11:49:39;;;;;;;0.00;0.00;;;;;;;24.61;33.18;102410.72;10533824;28;20109;-79
2022/05/09 11:54:48;;;;;;;0.08;0.08;;;;;;;23.77;36.29;102408.66;10533976;28;20118;-79
2022/05/09 11:59:53;;;;;;;0.00;0.00;;;;;;;23.92;35.06;102404.19;10532959;28;20044;-78
2022/05/09 12:04:54;;;;;;;0.00;0.00;;;;;;;24.65;33.76;102401.00;10539951;28;20471;-78
2022/05/09 12:10:11;;;;;;;2.17;1.08;;;;;;;24.53;36.18;102396.75;10534070;28;20060;-78
2022/05/09 12:15:16;;;;;;;0.00;0.00;;;;;;;24.77;34.13;102392.16;10534915;28;20079;-78
2022/05/09 12:20:26;;;;;;;0.00;0.00;;;;;;;23.36;34.91;102396.56;10535135;28;20503;-78
2022/05/09 12:25:36;;;;;;;0.00;0.00;;;;;;;24.65;33.49;102383.47;10533010;28;20055;-79
2022/05/09 12:30:59;;;;;;;0.17;0.17;;;;;;;23.83;34.83;102383.19;10533589;28;20441;-78
2022/05/09 12:36:06;;;;;;;0.00;0.00;;;;;;;24.47;35.45;102375.72;10518712;28;20447;-79
2022/05/09 12:41:16;;;;;;;0.00;0.00;;;;;;;23.43;33.43;102368.50;10529798;28;20051;-79
2022/05/09 12:46:27;;;;;;;0.22;0.22;;;;;;;23.75;34.84;102360.44;10526775;28;20072;-78
2022/05/09 12:51:31;;;;;;;0.00;0.00;;;;;;;24.54;34.64;102357.22;10512643;28;20055;-77
2022/05/09 12:56:37;;;;;;;0.00;0.00;;;;;;;24.49;35.44;102359.03;10524202;28;20076;-78
2022/05/09 13:01:44;;;;;;;2.10;0.80;;;;;;;23.18;35.38;102346.69;10532482;28;20070;-78
2022/05/09 13:07:07;;;;;;;0.00;0.00;;;;;;;24.34;34.74;102349.50;10529155;28;20052;-78
2022/05/09 13:12:32;;;;;;;0.00;0.00;;;;;;;23.87;32.98;102348.06;10532228;28;20097;-79
2022/05/09 13:17:39;;;;;;;0.63;0.22;;;;;;;24.05;34.46;102337.44;10507892;28;20052;-78
2022/05/09 13:22:47;;;;;;;0.00;0.00;;;;;;;24.15;32.26;102332.97;10489299;28;20060;-78
2022/05/09 13:27:52;;;;;;;0.00;0.00;;;;;;;23.37;32.53;102327.31;10500048;28;20056;-80
2022/05/09 13:32:57;;;;;;;0.28;0.28;;;;;;;23.97;31.59;102323.47;10524583;28;20163;-78
2022/05/09 13:38:30;;;;;;;0.00;0.00;;;;;;;24.59;33.75;102315.03;10514340;28;20095;-78
2022/05/09 13:43:37;;;;;;;0.75;0.75;;;;;;;23.57;32.22;102315.81;10496910;28;20052;-79
2022/05/09 13:49:21;;;;;;;0.00;0.00;;;;;;;23.94;31.23;102307.69;10497655;28;20423;-77
2022/05/09 13:54:28;;;;;;;0.00;0.00;;;;;;;23.77;33.26;102311.31;10523825;28;20048;-75
2022/05/09 13:59:34;;;;;;;0.00;0.00;;;;;;;23.77;31.76;102303.41;10511442;28;20048;-77
2022/05/09 14:04:38;;;;;;;0.00;0.00;;;;;;;24.45;33.14;102301.13;10533468;28;20056;-79
2022/05/09 14:09:41;;;;;;;0.00;0.00;;;;;;;24.55;34.51;102289.56;10537352;28;20079;-78
2022/05/09 14:14:46;;;;;;;0.20;0.20;;;;;;;24.43;34.94;102289.72;10496838;28;20389;-79
2022/05/09 14:19:56;;;;;;;0.00;0.00;;;;;;;23.64;33.31;102296.50;10497874;28;20136;-78
2022/05/09 14:30:20;;;;;;;0.00;0.00;;;;;;;24.03;36.06;102270.75;10496865;28;20491;-79
2022/05/09 14:35:56;;;;;;;0.10;0.10;;;;;;;24.61;33.40;102263.16;10497476;28;20060;-79
2022/05/09 14:41:40;;;;;;;0.00;0.00;;;;;;;24.18;34.64;102253.09;10504598;28;20079;-79
2022/05/09 14:47:00;;;;;;;0.00;0.00;;;;;;;25.13;34.93;102237.09;10545768;28;20075;-81
2022/05/09 14:53:00;;;;;;;0.55;0.55;;;;;;;23.88;33.63;102236.66;10512982;28;20131;-78
2022/05/09 14:58:17;;;;;;;0.00;0.00;;;;;;;23.97;34.41;102220.81;10519507;28;20090;-78
2022/05/09 15:03:22;;;;;;;0.00;0.00;;;;;;;24.24;35.39;102211.78;10538838;28;20051;-78
2022/05/09 15:08:31;;;;;;;0.00;0.00;;;;;;;24.13;32.88;102212.78;10536881;28;20056;-79
2022/05/09 15:13:34;;;;;;;0.00;0.00;;;;;;;24.68;32.61;102196.38;10530524;28;20120;-81
2022/05/09 15:18:36;;;;;;;0.00;0.00;;;;;;;24.64;34.81;102194.63;10535000;28;20091;-79
2022/05/09 15:23:38;;;;;;;0.00;0.00;;;;;;;24.04;35.23;102185.66;10542786;28;20384;-78
2022/05/09 15:28:41;;;;;;;0.25;0.25;;;;;;;24.02;33.89;102176.88;10528000;28;20076;-79
2022/05/09 15:33:58;;;;;;;0.00;0.00;;;;;;;24.00;35.17;102165.53;10537493;28;20499;-79
2022/05/09 15:39:00;;;;;;;0.20;0.20;;;;;;;24.37;32.43;102165.13;10542579;28;20056;-81
2022/05/09 15:44:05;;;;;;;0.10;0.10;;;;;;;24.31;33.58;102165.16;10524134;28;20098;-80
2022/05/09 15:49:14;;;;;;;0.00;0.00;;;;;;;24.44;33.79;102154.50;10527113;28;20134;-81
2022/05/09 15:54:16;;;;;;;0.00;0.00;;;;;;;24.14;35.21;102153.97;10531583;28;20055;-79
2022/05/09 15:59:24;;;;;;;0.00;0.00;;;;;;;24.23;35.24;102149.47;10534110;28;20486;-79
2022/05/09 16:04:26;;;;;;;2.35;1.27;;;;;;;24.17;36.16;102136.38;10531507;28;20572;-79
2022/05/09 16:14:51;;;;;;;0.10;0.10;;;;;;;24.12;35.64;102132.94;10533625;28;20055;-80
2022/05/09 16:19:59;;;;;;;1.13;1.02;;;;;;;23.85;37.03;102139.31;10527259;28;20070;-79
2022/05/09 16:25:03;;;;;;;0.63;0.40;;;;;;;23.95;35.01;102135.72;10529585;28;20048;-77
2022/05/09 16:30:21;;;;;;;0.52;0.45;;;;;;;24.00;35.21;102131.31;10521690;28;20434;-79
2022/05/09 16:35:25;;;;;;;0.00;0.00;;;;;;;24.12;35.84;102139.94;10515819;28;20046;-78
2022/05/09 16:40:32;;;;;;;0.00;0.00;;;;;;;24.25;37.27;102123.09;10540626;28;20079;-79
2022/05/09 16:45:35;;;;;;;0.00;0.00;;;;;;;24.10;38.60;102126.81;10528511;28;20060;-78
2022/05/09 16:50:40;;;;;;;0.00;0.00;;;;;;;23.73;37.54;102120.13;10537994;28;20048;-79
2022/05/09 16:55:43;;;;;;;0.00;0.00;;;;;;;23.85;37.32;102113.88;10540366;28;20066;-78
2022/05/09 17:00:47;;;;;;;0.00;0.00;;;;;;;24.01;37.94;102114.63;10534864;28;20047;-79
2022/05/09 17:05:51;;;;;;;0.00;0.00;;;;;;;23.94;38.65;102105.03;10531354;28;20052;-79
2022/05/09 17:10:54;;;;;;;0.00;0.00;;;;;;;23.99;39.03;102110.25;10532863;28;20121;-79
2022/05/09 17:15:58;;;;;;;0.00;0.00;;;;;;;23.88;38.53;102105.06;10521807;28;20084;-79
2022/05/09 17:21:01;;;;;;;0.00;0.00;;;;;;;23.44;40.95;102100.22;10524936;28;21815;-79
2022/05/09 17:26:10;;;;;;;0.00;0.00;;;;;;;23.60;41.04;102107.97;10503684;28;20052;-79
2022/05/09 17:31:12;;;;;;;0.00;0.00;;;;;;;23.76;40.07;102108.69;10505272;28;20048;-79
2022/05/09 17:41:34;;;;;;;0.00;0.00;;;;;;;23.70;40.15;102098.22;10529901;28;20080;-79
2022/05/09 17:46:43;;;;;;;0.00;0.00;;;;;;;23.55;42.36;102101.91;10515309;28;20068;-78
2022/05/09 17:51:45;;;;;;;0.00;0.00;;;;;;;23.50;43.06;102090.53;10527175;28;20500;-79
2022/05/09 18:02:45;;;;;;;0.00;0.00;;;;;;;23.01;44.41;102092.66;10535994;28;20086;-78
2022/05/09 18:07:49;;;;;;;0.00;0.00;;;;;;;22.80;43.02;102091.94;10536216;28;20048;-79
2022/05/09 18:18:54;;;;;;;0.00;0.00;;;;;;;21.93;47.20;102070.44;10554206;28;20380;-78
2022/05/09 18:24:04;;;;;;;0.00;0.00;;;;;;;21.87;45.04;102073.94;10540072;28;20102;-78
2022/05/09 18:59:45;;;;;;;0.00;0.00;;;;;;;20.02;52.53;102057.94;10503553;28;20044;-76
2022/05/09 19:04:46;;;;;;;0.00;0.00;;;;;;;20.02;51.36;102056.22;10503350;28;20392;-76
2022/05/09 19:09:49;;;;;;;0.00;0.00;;;;;;;19.77;51.66;102058.66;10502637;28;20068;-76
2022/05/09 19:14:51;;;;;;;0.00;0.00;;;;;;;19.66;51.71;102055.97;10502471;28;20503;-76
2022/05/09 19:19:52;;;;;;;0.00;0.00;;;;;;;19.03;59.66;102064.19;10521965;28;20109;-76
2022/05/09 19:24:54;;;;;;;0.15;0.15;;;;;;;18.70;60.51;102062.06;10543320;28;20109;-76
2022/05/09 19:29:58;;;;;;;0.45;0.38;;;;;;;18.48;61.50;102074.03;10540540;28;20105;-76
2022/05/09 19:35:06;;;;;;;0.52;0.52;;;;;;;18.14;59.67;102074.50;10558842;28;20048;-77
2022/05/09 19:40:09;;;;;;;0.00;0.00;;;;;;;18.11;59.27;102081.38;10543011;28;20109;-77
2022/05/09 19:45:19;;;;;;;0.00;0.00;;;;;;;18.32;57.80;102073.84;10542637;28;20129;-76
2022/05/09 19:50:21;;;;;;;0.00;0.00;;;;;;;18.18;58.97;102080.63;10540060;28;20059;-76
2022/05/09 19:55:23;;;;;;;1.27;1.08;;;;;;;17.57;61.69;102086.66;10530635;28;20059;-76
2022/05/09 20:00:25;;;;;;;0.00;0.00;;;;;;;17.34;63.66;102084.56;10508030;28;20053;-76
2022/05/09 20:05:26;;;;;;;0.00;0.00;;;;;;;17.51;63.12;102089.16;10529400;28;20044;-76
2022/05/09 20:10:28;;;;;;;0.10;0.10;;;;;;;17.02;65.32;102097.88;10540181;28;20430;-76
2022/05/09 20:15:32;;;;;;;0.00;0.00;;;;;;;16.83;66.75;102108.78;10542016;28;20048;-76
2022/05/09 20:20:34;;;;;;;0.00;0.00;;;;;;;16.57;68.81;102109.16;10541593;28;20056;-75
2022/05/09 20:30:56;;;;;;;0.00;0.00;;;;;;;16.11;69.38;102104.72;10527754;28;20045;-76
2022/05/09 20:36:01;;;;;;;0.00;0.00;;;;;;;16.21;69.77;102107.50;10532568;28;20048;-76
2022/05/09 20:41:16;;;;;;;0.00;0.00;;;;;;;15.98;69.82;102103.56;10534144;28;20048;-76
2022/05/09 20:46:18;;;;;;;0.00;0.00;;;;;;;15.62;71.44;102108.72;10540587;28;20090;-76
2022/05/09 20:51:20;;;;;;;0.00;0.00;;;;;;;15.47;72.34;102104.06;10522145;28;20048;-75
2022/05/09 20:56:21;;;;;;;0.00;0.00;;;;;;;15.03;74.42;102105.56;10540202;28;20052;-76
2022/05/09 21:08:27;;;;;;;0.00;0.00;;;;;;;15.08;72.02;102105.66;10497423;28;20041;-76
2022/05/09 21:13:28;;;;;;;0.38;0.38;;;;;;;14.85;72.33;102107.63;10532889;28;20113;-75
2022/05/09 21:18:30;;;;;;;0.00;0.00;;;;;;;15.16;70.08;102092.88;10539507;28;20083;-75
2022/05/09 21:23:32;;;;;;;0.00;0.00;;;;;;;15.31;67.81;102102.78;10539743;28;20131;-75
2022/05/09 21:28:34;;;;;;;0.08;0.08;;;;;;;15.16;69.90;102098.94;10522520;28;20499;-76
2022/05/09 21:33:35;;;;;;;0.00;0.00;;;;;;;15.09;68.78;102089.25;10539620;28;20052;-76
2022/05/09 21:44:08;;;;;;;0.00;0.00;;;;;;;15.02;68.71;102088.22;10539398;28;20476;-76
2022/05/09 21:49:10;;;;;;;0.00;0.00;;;;;;;15.16;68.09;102083.38;10539284;28;20487;-76
2022/05/09 21:54:14;;;;;;;0.00;0.00;;;;;;;15.17;66.44;102069.56;10539270;28;20056;-76
2022/05/09 21:59:17;;;;;;;0.30;0.30;;;;;;;14.83;68.22;102068.69;10538020;28;20044;-75
2022/05/09 22:04:18;;;;;;;0.00;0.00;;;;;;;15.31;65.68;102061.22;10555453;28;20105;-76
2022/05/09 22:09:24;;;;;;;0.00;0.00;;;;;;;14.72;68.14;102059.72;10539452;28;20094;-75
2022/05/09 22:14:29;;;;;;;0.00;0.00;;;;;;;14.58;68.69;102049.81;10539173;28;20044;-75
2022/05/09 22:19:34;;;;;;;0.00;0.00;;;;;;;14.35;69.58;102049.19;10543036;28;20052;-76
2022/05/09 22:24:46;;;;;;;0.00;0.00;;;;;;;14.23;70.35;102043.63;10546815;28;20052;-76
2022/05/09 22:29:49;;;;;;;0.10;0.10;;;;;;;14.48;68.76;102040.03;10544309;28;20079;-75
2022/05/09 22:34:51;;;;;;;1.00;0.90;;;;;;;14.39;69.34;102034.59;10542197;28;20071;-76
2022/05/09 22:40:04;;;;;;;0.00;0.00;;;;;;;14.54;67.33;102035.03;10543598;28;20040;-75
2022/05/09 22:45:16;;;;;;;0.00;0.00;;;;;;;14.35;70.02;102027.53;10543433;28;20490;-76
2022/05/09 22:50:19;;;;;;;0.00;0.00;;;;;;;14.30;70.72;102035.19;10542964;28;20061;-75
2022/05/09 22:55:21;;;;;;;0.00;0.00;;;;;;;14.23;69.63;102028.97;10559514;28;20048;-75
2022/05/09 23:00:23;;;;;;;0.00;0.00;;;;;;;13.98;71.30;102016.09;10542584;28;20079;-76
2022/05/09 23:05:36;;;;;;;0.00;0.00;;;;;;;14.05;71.09;102010.28;10542624;28;20055;-76
2022/05/09 23:10:41;;;;;;;0.00;0.00;;;;;;;14.04;71.29;102005.91;10542052;28;20411;-76
2022/05/09 23:15:43;;;;;;;0.00;0.00;;;;;;;13.94;72.44;101994.41;10542369;28;20056;-76
2022/05/09 23:20:45;;;;;;;0.00;0.00;;;;;;;14.02;72.49;101987.75;10541823;28;20056;-76
2022/05/09 23:25:48;;;;;;;0.00;0.00;;;;;;;14.21;72.30;101983.09;10503635;28;1048031;-76
2022/05/09 23:30:54;;;;;;;0.00;0.00;;;;;;;14.06;71.48;101983.53;10541738;28;20143;-76
2022/05/09 23:35:56;;;;;;;0.10;0.10;;;;;;;14.02;71.63;101979.09;10544285;28;20048;-75
2022/05/09 23:41:01;;;;;;;0.00;0.00;;;;;;;14.10;72.17;101975.03;10543174;28;20052;-76
2022/05/09 23:46:03;;;;;;;0.00;0.00;;;;;;;14.07;71.24;101974.94;10542960;28;20052;-76
2022/05/09 23:51:05;;;;;;;0.00;0.00;;;;;;;14.23;69.42;101974.53;10542992;28;20048;-75
2022/05/09 23:56:07;;;;;;;0.00;0.00;;;;;;;13.99;71.12;101966.94;10543590;28;20101;-76
